createdAt,value
2022-08-20T16:18:24.526Z,46.89
2022-08-20T16:19:30.129Z,47.50
2022-08-20T16:20:24.146Z,47.23
2022-08-20T16:21:23.266Z,47.16
2022-08-20T16:22:22.163Z,47.17
2022-08-20T16:23:22.179Z,48.19
2022-08-20T16:24:22.318Z,48.61
2022-08-20T16:25:22.886Z,49.31
2022-08-20T16:26:23.040Z,48.81
2022-08-20T16:27:22.328Z,49.23
2022-08-20T16:28:22.283Z,49.73
2022-08-20T16:29:22.154Z,49.73
2022-08-20T16:30:22.087Z,49.83
2022-08-20T16:31:22.065Z,50.45
2022-08-20T16:32:22.036Z,50.55
2022-08-20T16:33:22.097Z,50.45
2022-08-20T16:34:33.929Z,50.25
2022-08-20T16:35:26.308Z,49.85
2022-08-20T16:36:22.949Z,50.05
2022-08-20T16:37:21.987Z,50.45
2022-08-20T16:38:22.009Z,49.95
2022-08-20T16:39:22.250Z,50.08
2022-08-20T16:40:22.000Z,50.48
2022-08-20T16:41:21.899Z,50.48
2022-08-20T16:42:21.848Z,50.27
2022-08-20T16:43:21.838Z,50.38
2022-08-20T16:44:22.107Z,50.18
2022-08-20T16:45:21.842Z,50.08
2022-08-20T16:46:21.879Z,49.98
2022-08-20T16:47:22.049Z,50.57
2022-08-20T16:48:26.484Z,50.57
2022-08-20T16:49:30.009Z,50.27
2022-08-20T16:50:22.100Z,50.57
2022-08-20T16:51:21.981Z,50.38
2022-08-20T16:52:22.145Z,50.48
2022-08-20T16:53:22.041Z,50.18
2022-08-20T16:54:29.531Z,49.88
2022-08-20T16:55:24.156Z,50.10
2022-08-20T16:56:22.094Z,49.90
2022-08-20T16:57:21.877Z,49.80
2022-08-20T16:58:21.898Z,49.90
2022-08-20T16:59:27.261Z,49.90
2022-08-20T17:00:22.654Z,50.20
2022-08-20T17:01:21.674Z,50.10
2022-08-20T17:02:21.690Z,50.50
2022-08-20T17:03:38.539Z,50.30
2022-08-20T17:04:22.640Z,50.50
2022-08-20T17:05:22.480Z,50.90
2022-08-20T17:06:22.289Z,51.00
2022-08-20T17:07:21.779Z,50.70
2022-08-20T17:08:22.671Z,50.62
2022-08-20T17:09:22.167Z,50.80
2022-08-20T17:10:21.499Z,50.80
2022-08-20T17:11:22.077Z,50.92
2022-08-20T17:12:21.799Z,50.73
2022-08-20T17:13:21.575Z,50.52
2022-08-20T17:14:22.136Z,50.13
2022-08-20T17:15:25.530Z,50.62
2022-08-20T17:16:22.620Z,51.22
2022-08-20T17:17:26.225Z,51.03
2022-08-20T17:18:23.848Z,51.22
2022-08-20T17:19:23.650Z,51.32
2022-08-20T17:20:22.467Z,50.52
2022-08-20T17:21:25.161Z,50.52
2022-08-20T17:22:24.096Z,50.62
2022-08-20T17:23:21.877Z,50.52
2022-08-20T17:24:21.445Z,50.92
2022-08-20T17:25:22.969Z,51.03
2022-08-20T17:26:22.749Z,51.12
2022-08-20T17:27:22.186Z,51.22
2022-08-20T17:28:21.251Z,51.22
2022-08-20T17:29:21.301Z,50.92
2022-08-20T17:30:21.968Z,50.52
2022-08-20T17:31:21.342Z,50.73
2022-08-20T17:32:22.273Z,50.62
2022-08-20T17:33:21.334Z,51.22
2022-08-20T17:34:22.405Z,50.82
2022-08-20T17:35:21.685Z,51.03
2022-08-20T17:36:22.548Z,50.73
2022-08-20T17:37:22.509Z,50.92
2022-08-20T17:38:21.360Z,51.03
2022-08-20T17:39:21.328Z,50.92
2022-08-20T17:40:21.213Z,50.92
2022-08-20T17:41:21.178Z,51.12
2022-08-20T17:42:21.308Z,51.22
2022-08-20T17:43:21.305Z,51.22
2022-08-20T17:44:21.286Z,51.32
2022-08-20T17:45:21.045Z,51.35
2022-08-20T17:46:21.207Z,51.32
2022-08-20T17:47:21.160Z,51.35
2022-08-20T17:48:24.294Z,51.35
2022-08-20T17:49:21.346Z,51.54
2022-08-20T17:50:21.134Z,51.65
2022-08-20T17:51:22.681Z,51.75
2022-08-20T17:52:20.965Z,52.25
2022-08-20T17:53:23.362Z,52.14
2022-08-20T17:54:21.461Z,52.64
2022-08-20T17:55:20.862Z,52.64
2022-08-20T17:56:20.935Z,52.55
2022-08-20T17:57:20.781Z,52.84
2022-08-20T17:58:22.455Z,52.55
2022-08-20T17:59:36.431Z,52.44
2022-08-20T18:00:21.770Z,52.34
2022-08-20T18:01:20.865Z,52.64
2022-08-20T18:02:20.750Z,52.34
2022-08-20T18:03:20.944Z,52.27
2022-08-20T18:04:21.744Z,52.37
2022-08-20T18:05:20.862Z,52.37
2022-08-20T18:06:22.191Z,52.37
2022-08-20T18:07:35.770Z,52.76
2022-08-20T18:08:20.872Z,52.27
2022-08-20T18:09:20.767Z,52.67
2022-08-20T18:10:20.733Z,52.67
2022-08-20T18:11:23.560Z,52.76
2022-08-20T18:12:32.752Z,53.06
2022-08-20T18:13:22.586Z,52.67
2022-08-20T18:14:20.710Z,52.67
2022-08-20T18:15:24.452Z,52.57
2022-08-20T18:16:21.214Z,52.67
2022-08-20T18:17:20.775Z,52.76
2022-08-20T18:18:20.674Z,52.57
2022-08-20T18:19:20.924Z,53.06
2022-08-20T18:20:21.281Z,53.17
2022-08-20T18:21:21.882Z,52.97
2022-08-20T18:22:21.477Z,52.37
2022-08-20T18:23:20.939Z,52.57
2022-08-20T18:24:20.693Z,53.09
2022-08-20T18:25:21.454Z,52.87
2022-08-20T18:26:20.490Z,53.19
2022-08-20T18:27:22.720Z,53.29
2022-08-20T18:28:21.689Z,53.09
2022-08-20T18:29:21.239Z,53.09
2022-08-20T18:30:20.497Z,53.19
2022-08-20T18:31:20.853Z,53.09
2022-08-20T18:32:21.575Z,52.99
2022-08-20T18:33:20.342Z,53.09
2022-08-20T18:34:20.333Z,52.89
2022-08-20T18:35:20.355Z,52.99
2022-08-20T18:36:20.424Z,53.09
2022-08-20T18:37:20.320Z,52.89
2022-08-20T18:38:20.283Z,53.29
2022-08-20T18:39:20.271Z,53.49
2022-08-20T18:40:20.340Z,53.39
2022-08-20T18:41:20.304Z,53.79
2022-08-20T18:42:20.211Z,54.09
2022-08-20T18:43:20.218Z,54.59
2022-08-20T18:44:20.190Z,54.29
2022-08-20T18:45:20.152Z,54.49
2022-08-20T18:46:20.123Z,54.79
2022-08-20T18:47:20.155Z,54.69
2022-08-20T18:48:20.210Z,54.29
2022-08-20T18:49:20.124Z,54.79
2022-08-20T18:50:20.153Z,54.91
2022-08-20T18:51:20.167Z,54.91
2022-08-20T18:52:20.152Z,54.52
2022-08-20T18:53:20.023Z,54.32
2022-08-20T18:54:20.131Z,54.32
2022-08-20T18:55:20.018Z,54.52
2022-08-20T18:56:19.992Z,54.71
2022-08-20T18:57:20.011Z,54.41
2022-08-20T18:58:20.016Z,54.41
2022-08-20T18:59:20.046Z,54.61
2022-08-20T19:00:20.699Z,54.41
2022-08-20T19:01:19.976Z,54.52
2022-08-20T19:02:20.092Z,54.11
2022-08-20T19:03:19.994Z,54.22
2022-08-20T19:04:19.973Z,54.41
2022-08-20T19:05:19.915Z,54.61
2022-08-20T19:06:20.185Z,54.11
2022-08-20T19:07:19.847Z,54.41
2022-08-20T19:08:20.056Z,54.22
2022-08-20T19:09:20.109Z,53.61
2022-08-20T19:10:27.467Z,53.84
2022-08-20T19:11:20.897Z,53.74
2022-08-20T19:12:19.857Z,53.64
2022-08-20T19:13:21.418Z,53.74
2022-08-20T19:14:20.355Z,53.54
2022-08-20T19:15:19.809Z,53.64
2022-08-20T19:16:19.928Z,53.54
2022-08-20T19:17:19.808Z,54.04
2022-08-20T19:18:19.821Z,54.24
2022-08-20T19:19:19.836Z,53.84
2022-08-20T19:20:19.945Z,53.84
2022-08-20T19:21:19.874Z,54.04
2022-08-20T19:22:20.470Z,53.84
2022-08-20T19:23:20.947Z,53.44
2022-08-20T19:24:20.803Z,53.84
2022-08-20T19:25:19.671Z,53.74
2022-08-20T19:26:25.725Z,53.84
2022-08-20T19:27:22.351Z,53.84
2022-08-20T19:28:19.753Z,54.14
2022-08-20T19:29:22.049Z,54.04
2022-08-20T19:30:19.767Z,53.74
2022-08-20T19:31:20.630Z,54.14
2022-08-20T19:32:19.606Z,53.84
2022-08-20T19:33:19.609Z,53.74
2022-08-20T19:34:22.291Z,53.84
2022-08-20T19:35:19.555Z,53.87
2022-08-20T19:36:19.474Z,53.94
2022-08-20T19:37:34.780Z,54.04
2022-08-20T19:38:21.404Z,53.97
2022-08-20T19:39:19.520Z,54.06
2022-08-20T19:40:20.568Z,53.97
2022-08-20T19:41:23.864Z,54.06
2022-08-20T19:42:20.436Z,54.27
2022-08-20T19:43:19.434Z,54.86
2022-08-20T19:44:19.375Z,55.27
2022-08-20T19:45:21.342Z,54.17
2022-08-20T19:46:21.139Z,54.57
2022-08-20T19:47:20.194Z,55.07
2022-08-20T19:48:27.591Z,55.57
2022-08-20T19:49:20.385Z,55.87
2022-08-20T19:50:19.487Z,55.36
2022-08-20T19:51:19.526Z,55.27
2022-08-20T19:52:19.316Z,55.36
2022-08-20T19:53:19.304Z,55.66
2022-08-20T19:54:20.643Z,55.49
2022-08-20T19:55:19.260Z,55.89
2022-08-20T19:56:20.405Z,55.49
2022-08-20T19:57:19.279Z,55.59
2022-08-20T19:58:26.170Z,55.99
2022-08-20T19:59:20.211Z,56.29
2022-08-20T20:00:19.205Z,55.99
2022-08-20T20:01:19.210Z,56.29
2022-08-20T20:02:21.642Z,56.29
2022-08-20T20:03:19.306Z,56.20
2022-08-20T20:04:19.185Z,56.42
2022-08-20T20:05:19.142Z,56.72
2022-08-20T20:06:19.108Z,56.42
2022-08-20T20:07:19.088Z,56.22
2022-08-20T20:08:19.069Z,56.32
2022-08-20T20:09:19.141Z,56.22
2022-08-20T20:10:19.085Z,56.42
2022-08-20T20:11:19.123Z,56.62
2022-08-20T20:12:23.101Z,57.42
2022-08-20T20:13:19.043Z,57.22
2022-08-20T20:14:19.070Z,57.42
2022-08-20T20:15:19.026Z,56.92
2022-08-20T20:16:19.016Z,56.92
2022-08-20T20:17:22.905Z,57.22
2022-08-20T20:18:18.965Z,57.42
2022-08-20T20:19:27.557Z,57.42
2022-08-20T20:20:22.075Z,57.22
2022-08-20T20:21:20.936Z,57.24
2022-08-20T20:22:20.392Z,57.35
2022-08-20T20:23:18.877Z,57.35
2022-08-20T20:24:20.682Z,57.75
2022-08-20T20:25:18.851Z,57.45
2022-08-20T20:26:18.869Z,57.45
2022-08-20T20:27:20.128Z,57.45
2022-08-20T20:28:18.802Z,58.35
2022-08-20T20:29:18.844Z,58.85
2022-08-20T20:30:19.801Z,58.48
2022-08-20T20:31:18.808Z,58.18
2022-08-20T20:32:19.091Z,57.98
2022-08-20T20:33:18.770Z,57.68
2022-08-20T20:34:19.218Z,57.78
2022-08-20T20:35:18.785Z,58.58
2022-08-20T20:36:18.731Z,58.68
2022-08-20T20:37:18.685Z,58.78
2022-08-20T20:38:19.669Z,59.38
2022-08-20T20:39:18.719Z,59.28
2022-08-20T20:40:19.576Z,59.08
2022-08-20T20:41:18.641Z,59.48
2022-08-20T20:42:18.648Z,59.61
2022-08-20T20:43:18.639Z,59.11
2022-08-20T20:44:18.701Z,59.20
2022-08-20T20:45:18.591Z,59.00
2022-08-20T20:46:18.652Z,59.31
2022-08-20T20:47:18.575Z,59.11
2022-08-20T20:48:18.592Z,59.70
2022-08-20T20:49:18.538Z,60.71
2022-08-20T20:50:18.590Z,60.01
2022-08-20T20:51:18.541Z,59.70
2022-08-20T20:52:18.589Z,60.31
2022-08-20T20:53:18.489Z,61.04
2022-08-20T20:54:18.503Z,61.04
2022-08-20T20:55:18.509Z,60.74
2022-08-20T20:56:18.527Z,60.53
2022-08-20T20:57:18.475Z,61.24
2022-08-20T20:58:19.123Z,61.54
2022-08-20T20:59:18.443Z,60.94
2022-08-20T21:00:18.390Z,61.14
2022-08-20T21:01:18.560Z,61.24
2022-08-20T21:02:19.521Z,60.74
2022-08-20T21:03:18.386Z,60.64
2022-08-20T21:04:18.403Z,61.04
2022-08-20T21:05:18.365Z,61.36
2022-08-20T21:06:18.403Z,61.47
2022-08-20T21:07:18.414Z,61.57
2022-08-20T21:08:18.324Z,61.67
2022-08-20T21:09:18.301Z,62.07
2022-08-20T21:10:18.310Z,62.17
2022-08-20T21:11:18.292Z,62.47
2022-08-20T21:12:18.292Z,62.87
2022-08-20T21:13:18.321Z,63.20
2022-08-20T21:14:18.231Z,63.40
2022-08-20T21:15:18.204Z,62.90
2022-08-20T21:16:18.219Z,63.20
2022-08-20T21:17:18.219Z,62.90
2022-08-20T21:18:19.452Z,62.90
2022-08-20T21:19:18.183Z,63.10
2022-08-20T21:20:18.144Z,63.40
2022-08-20T21:21:18.162Z,63.60
2022-08-20T21:22:18.141Z,64.11
2022-08-20T21:23:18.137Z,64.11
2022-08-20T21:24:18.090Z,64.31
2022-08-20T21:25:18.133Z,63.40
2022-08-20T21:26:18.116Z,64.21
2022-08-20T21:27:18.047Z,64.51
2022-08-20T21:28:18.061Z,64.51
2022-08-20T21:29:18.068Z,65.11
2022-08-20T21:30:18.043Z,64.71
2022-08-20T21:31:17.999Z,65.34
2022-08-20T21:32:18.987Z,64.43
2022-08-20T21:33:18.009Z,65.44
2022-08-20T21:34:17.975Z,65.64
2022-08-20T21:35:18.003Z,65.54
2022-08-20T21:36:17.988Z,65.04
2022-08-20T21:37:18.052Z,65.04
2022-08-20T21:38:18.947Z,64.43
2022-08-20T21:39:17.945Z,65.04
2022-08-20T21:40:18.207Z,64.54
2022-08-20T21:41:17.874Z,64.54
2022-08-20T21:42:28.496Z,64.24
2022-08-20T21:43:18.929Z,64.14
2022-08-20T21:44:17.906Z,64.04
2022-08-20T21:45:18.656Z,63.93
2022-08-20T21:46:17.881Z,63.73
2022-08-20T21:47:18.803Z,63.73
2022-08-20T21:48:17.807Z,63.64
2022-08-20T21:49:17.846Z,63.43
2022-08-20T21:50:18.602Z,63.23
2022-08-20T21:51:17.779Z,63.33
2022-08-20T21:52:17.766Z,63.23
2022-08-20T21:53:17.790Z,63.33
2022-08-20T21:54:17.728Z,63.33
2022-08-20T21:55:17.737Z,63.53
2022-08-20T21:56:17.753Z,63.33
2022-08-20T21:57:17.723Z,63.26
2022-08-20T21:58:17.683Z,63.53
2022-08-20T21:59:17.662Z,63.46
2022-08-20T22:00:18.013Z,63.46
2022-08-20T22:01:20.244Z,63.56
2022-08-20T22:02:17.773Z,63.46
2022-08-20T22:03:20.048Z,63.36
2022-08-20T22:04:18.067Z,63.36
2022-08-20T22:05:17.785Z,63.46
2022-08-20T22:06:17.725Z,63.36
2022-08-20T22:07:19.163Z,63.36
2022-08-20T22:08:17.994Z,63.46
2022-08-20T22:09:17.548Z,63.36
2022-08-20T22:10:18.409Z,63.56
2022-08-20T22:11:17.561Z,63.67
2022-08-20T22:12:17.758Z,63.67
2022-08-20T22:13:17.523Z,63.76
2022-08-20T22:14:20.706Z,63.67
2022-08-20T22:15:17.583Z,63.76
2022-08-20T22:16:17.453Z,63.67
2022-08-20T22:17:17.944Z,63.67
2022-08-20T22:18:17.579Z,63.56
2022-08-20T22:19:17.776Z,63.59
2022-08-20T22:20:17.583Z,63.90
2022-08-20T22:21:17.642Z,64.00
2022-08-20T22:22:18.682Z,63.90
2022-08-20T22:23:17.382Z,64.00
2022-08-20T22:24:17.342Z,63.90
2022-08-20T22:25:17.374Z,64.10
2022-08-20T22:26:17.309Z,64.00
2022-08-20T22:27:17.306Z,64.20
2022-08-20T22:28:17.313Z,64.20
2022-08-20T22:29:17.266Z,64.20
2022-08-20T22:30:17.234Z,64.40
2022-08-20T22:31:17.252Z,64.50
2022-08-20T22:32:17.272Z,64.70
2022-08-20T22:33:17.207Z,64.60
2022-08-20T22:34:17.294Z,64.63
2022-08-20T22:35:17.170Z,64.83
2022-08-20T22:36:17.151Z,64.93
2022-08-20T22:37:17.171Z,65.03
2022-08-20T22:38:17.157Z,64.93
2022-08-20T22:39:17.213Z,65.23
2022-08-20T22:40:17.179Z,65.23
2022-08-20T22:41:17.165Z,65.33
2022-08-20T22:42:17.104Z,65.33
2022-08-20T22:43:17.087Z,65.44
2022-08-20T22:44:17.101Z,65.64
2022-08-20T22:45:17.047Z,65.53
2022-08-20T22:46:17.048Z,65.84
2022-08-20T22:47:17.075Z,65.84
2022-08-20T22:48:17.028Z,66.07
2022-08-20T22:49:17.014Z,66.27
2022-08-20T22:50:16.992Z,66.57
2022-08-20T22:51:16.944Z,66.47
2022-08-20T22:52:16.962Z,66.67
2022-08-20T22:53:16.963Z,66.87
2022-08-20T22:54:16.946Z,67.27
2022-08-20T22:55:16.935Z,67.18
2022-08-20T22:56:19.870Z,67.47
2022-08-20T22:57:20.311Z,67.38
2022-08-20T22:58:16.883Z,67.18
2022-08-20T22:59:16.896Z,67.18
2022-08-20T23:00:16.829Z,67.58
2022-08-20T23:01:16.866Z,67.71
2022-08-20T23:02:16.874Z,67.81
2022-08-20T23:03:18.065Z,67.81
2022-08-20T23:04:17.824Z,68.11
2022-08-20T23:05:16.833Z,67.91
2022-08-20T23:06:16.784Z,67.91
2022-08-20T23:07:16.763Z,68.11
2022-08-20T23:08:16.765Z,68.21
2022-08-20T23:09:21.035Z,68.11
2022-08-20T23:10:16.702Z,68.31
2022-08-20T23:11:16.713Z,68.21
2022-08-20T23:12:16.726Z,67.91
2022-08-20T23:13:16.663Z,68.31
2022-08-20T23:14:16.643Z,68.62
2022-08-20T23:15:16.681Z,68.82
2022-08-20T23:16:16.658Z,69.02
2022-08-20T23:17:16.632Z,69.12
2022-08-20T23:18:16.611Z,69.42
2022-08-20T23:19:16.647Z,69.35
2022-08-20T23:20:16.568Z,69.65
2022-08-20T23:21:16.620Z,69.35
2022-08-20T23:22:16.562Z,69.35
2022-08-20T23:23:16.552Z,69.56
2022-08-20T23:24:16.551Z,69.56
2022-08-20T23:25:16.542Z,69.65
2022-08-20T23:26:16.513Z,69.85
2022-08-20T23:27:16.518Z,69.65
2022-08-20T23:28:16.459Z,69.65
2022-08-20T23:29:16.494Z,69.56
2022-08-20T23:30:17.422Z,69.65
2022-08-20T23:31:16.452Z,69.85
2022-08-20T23:32:16.442Z,69.65
2022-08-20T23:33:16.423Z,69.56
2022-08-20T23:34:16.393Z,69.25
2022-08-20T23:35:16.429Z,69.65
2022-08-20T23:36:16.382Z,69.45
2022-08-20T23:37:16.391Z,69.85
2022-08-20T23:38:16.365Z,70.16
2022-08-20T23:39:16.372Z,69.76
2022-08-20T23:40:16.471Z,69.76
2022-08-20T23:41:16.330Z,69.76
2022-08-20T23:42:16.323Z,69.65
2022-08-20T23:43:16.294Z,69.65
2022-08-20T23:44:25.769Z,69.35
2022-08-20T23:45:17.274Z,69.65
2022-08-20T23:46:17.214Z,69.85
2022-08-20T23:47:16.262Z,69.96
2022-08-20T23:48:16.212Z,69.85
2022-08-20T23:49:16.219Z,70.16
2022-08-20T23:50:16.336Z,69.96
2022-08-20T23:51:16.194Z,69.56
2022-08-20T23:52:16.205Z,69.76
2022-08-20T23:53:16.249Z,69.96
2022-08-20T23:54:16.165Z,69.85
2022-08-20T23:55:16.162Z,70.96
2022-08-20T23:56:16.126Z,70.46
2022-08-20T23:57:16.143Z,70.50
2022-08-20T23:58:16.112Z,70.79
2022-08-20T23:59:16.134Z,71.10
